createdAt,value
2023-04-04T05:02:26.344Z,73.40
2023-04-04T05:12:37.132Z,80.60
2023-04-04T05:17:42.137Z,73.90
2023-04-04T05:22:46.501Z,74.00
2023-04-04T05:27:50.929Z,74.40
2023-04-04T05:32:56.919Z,74.70
2023-04-04T05:38:01.670Z,74.90
2023-04-04T05:43:06.714Z,75.00
2023-04-04T05:48:12.652Z,74.90
2023-04-04T05:53:21.188Z,74.80
2023-04-04T05:58:26.401Z,74.60
2023-04-04T06:03:31.897Z,74.60
2023-04-04T06:08:46.651Z,74.70
2023-04-04T06:13:55.134Z,74.90
2023-04-04T06:19:01.144Z,74.50
2023-04-04T06:24:05.215Z,83.10
2023-04-04T06:34:14.894Z,73.90
2023-04-04T06:49:30.835Z,73.60
2023-04-04T06:59:38.365Z,73.40
2023-04-04T07:04:43.380Z,73.10
2023-04-04T07:09:47.289Z,73.70
2023-04-04T07:14:50.885Z,73.30
2023-04-04T07:19:55.936Z,72.70
2023-04-04T07:35:09.759Z,72.50
2023-04-04T07:50:22.771Z,71.50
2023-04-04T08:05:35.767Z,71.10
2023-04-04T08:15:43.593Z,71.30
2023-04-04T08:20:48.619Z,70.00
2023-04-04T08:30:56.891Z,81.80
2023-04-04T08:36:01.968Z,67.40
2023-04-04T08:51:18.734Z,63.50
2023-04-04T09:06:35.247Z,60.30
2023-04-04T09:11:41.476Z,59.30
2023-04-04T09:21:51.695Z,57.30
2023-04-04T09:37:07.676Z,55.00
2023-04-04T09:52:35.845Z,51.80
2023-04-04T10:02:50.367Z,50.70
2023-04-04T10:07:55.850Z,50.30
2023-04-04T10:18:04.808Z,48.90
2023-04-04T10:23:10.042Z,48.30
2023-04-04T10:33:27.208Z,47.30
2023-04-04T10:38:41.861Z,47.30
2023-04-04T10:43:48.600Z,46.80
2023-04-04T10:53:57.653Z,45.50
2023-04-04T10:59:13.453Z,45.20
2023-04-04T11:04:20.338Z,44.30
2023-04-04T11:09:54.030Z,43.90
2023-04-04T11:15:10.335Z,43.30
2023-04-04T11:20:17.910Z,49.90
2023-04-04T11:25:31.710Z,43.30
2023-04-04T11:30:48.229Z,42.40
2023-04-04T11:35:51.965Z,42.60
2023-04-04T11:40:57.085Z,42.70
2023-04-04T11:46:09.020Z,42.10
2023-04-04T11:51:13.016Z,41.40
2023-04-04T11:56:18.375Z,40.20
2023-04-04T12:01:22.306Z,40.80
2023-04-04T12:06:27.237Z,40.60
2023-04-04T12:11:34.878Z,40.40
2023-04-04T12:16:39.583Z,40.00
2023-04-04T12:26:50.026Z,39.10
2023-04-04T12:31:56.500Z,39.40
2023-04-04T12:37:01.858Z,39.50
2023-04-04T12:42:07.646Z,39.00
2023-04-04T12:47:14.116Z,38.80
2023-04-04T12:52:19.707Z,37.80
2023-04-04T12:57:27.669Z,37.40
2023-04-04T13:02:31.512Z,37.90
2023-04-04T13:07:43.109Z,37.10
2023-04-04T13:13:00.289Z,37.60
2023-04-04T13:18:15.702Z,37.20
2023-04-04T13:28:26.319Z,36.80
2023-04-04T13:38:36.151Z,36.40
2023-04-04T13:43:41.320Z,36.60
2023-04-04T13:53:49.244Z,36.20
2023-04-04T13:58:54.900Z,36.10
2023-04-04T14:03:58.726Z,36.80
2023-04-04T14:09:02.586Z,36.60
2023-04-04T14:14:07.536Z,36.50
2023-04-04T14:19:11.395Z,36.70
2023-04-04T14:29:20.556Z,35.40
2023-04-04T14:34:26.596Z,36.00
2023-04-04T14:39:30.825Z,36.00
2023-04-04T14:44:36.173Z,36.00
2023-04-04T14:49:40.318Z,36.00
2023-04-04T14:54:44.213Z,36.80
2023-04-04T14:59:49.241Z,36.40
2023-04-04T15:04:52.931Z,37.10
2023-04-04T15:09:57.325Z,37.20
2023-04-04T15:15:02.346Z,37.60
2023-04-04T15:20:07.054Z,38.00
2023-04-04T15:25:11.274Z,38.50
2023-04-04T15:30:17.064Z,38.80
2023-04-04T15:35:21.898Z,39.00
2023-04-04T15:40:25.791Z,39.30
2023-04-04T15:45:30.866Z,39.60
2023-04-04T15:50:34.508Z,39.80
2023-04-04T16:00:47.393Z,39.70
2023-04-04T16:05:51.059Z,40.50
2023-04-04T16:15:59.863Z,40.10
2023-04-04T16:21:04.200Z,40.70
2023-04-04T16:26:08.846Z,40.90
2023-04-04T16:31:15.504Z,41.10
2023-04-04T16:36:19.165Z,41.40
2023-04-04T16:41:22.772Z,41.70
2023-04-04T16:46:28.262Z,41.80
2023-04-04T16:51:32.212Z,42.10
2023-04-04T16:56:36.409Z,42.20
2023-04-04T17:01:41.656Z,42.20
2023-04-04T17:06:46.011Z,42.50
2023-04-04T17:11:49.878Z,42.70
2023-04-04T17:16:55.760Z,42.90
2023-04-04T17:21:59.641Z,43.30
2023-04-04T17:27:03.274Z,43.40
2023-04-04T17:32:08.316Z,43.50
2023-04-04T17:37:13.261Z,43.70
2023-04-04T17:42:16.885Z,43.90
2023-04-04T17:47:21.813Z,44.10
2023-04-04T17:52:25.364Z,44.30
2023-04-04T17:57:28.909Z,44.60
2023-04-04T18:02:33.852Z,44.80
2023-04-04T18:07:37.467Z,57.60
2023-04-04T18:12:41.243Z,58.90
2023-04-04T18:17:46.781Z,45.80
2023-04-04T18:22:50.925Z,57.50
2023-04-04T18:27:54.901Z,46.70
2023-04-04T18:48:13.661Z,47.40
2023-04-04T19:18:40.038Z,49.50
2023-04-04T19:49:12.640Z,52.20
2023-04-04T19:54:16.808Z,51.30
2023-04-04T19:59:48.415Z,51.30
2023-04-04T20:20:12.152Z,52.20
2023-04-04T20:25:40.932Z,52.40
2023-04-04T21:06:28.732Z,54.10
2023-04-04T21:11:35.418Z,54.10
2023-04-04T21:16:39.366Z,54.70
2023-04-04T21:21:44.361Z,55.10
2023-04-04T21:26:49.730Z,55.20
2023-04-04T21:31:55.653Z,55.60
2023-04-04T21:37:03.843Z,56.00
2023-04-04T21:42:09.065Z,56.30
2023-04-04T21:47:14.568Z,56.60
2023-04-04T21:52:20.767Z,56.80
2023-04-04T21:57:24.315Z,57.00
2023-04-04T22:02:27.907Z,57.30
2023-04-04T22:07:33.196Z,57.60
2023-04-04T22:12:39.965Z,57.70
2023-04-04T22:17:43.643Z,57.70
2023-04-04T22:22:48.646Z,58.00
2023-04-04T22:27:52.151Z,58.20
